createdAt,value
2022-10-28T00:01:30.951Z,7.07
2022-10-28T00:04:02.129Z,7.10
2022-10-28T00:06:35.167Z,7.40
2022-10-28T00:09:08.213Z,8.03
2022-10-28T00:11:39.661Z,7.27
2022-10-28T00:14:10.607Z,7.30
2022-10-28T00:16:39.576Z,7.20
2022-10-28T00:19:11.271Z,7.10
2022-10-28T00:21:42.877Z,7.67
2022-10-28T00:24:14.959Z,7.43
2022-10-28T00:26:44.627Z,7.40
2022-10-28T00:29:15.531Z,8.20
2022-10-28T00:31:44.998Z,7.60
2022-10-28T00:34:16.394Z,8.30
2022-10-28T00:36:46.623Z,7.50
2022-10-28T00:39:19.072Z,8.50
2022-10-28T00:41:50.364Z,8.93
2022-10-28T00:44:57.218Z,7.27
2022-10-28T00:47:40.862Z,7.50
2022-10-28T00:50:21.688Z,7.80
2022-10-28T00:52:54.619Z,9.10
2022-10-28T00:55:25.727Z,7.33
2022-10-28T00:57:56.658Z,7.73
2022-10-28T01:00:26.297Z,7.30
2022-10-28T01:02:54.852Z,7.97
2022-10-28T01:05:28.016Z,8.03
2022-10-28T01:08:00.537Z,8.23
2022-10-28T01:10:53.130Z,7.73
2022-10-28T01:13:37.374Z,7.77
2022-10-28T01:16:16.871Z,7.70
2022-10-28T01:19:10.535Z,7.67
2022-10-28T01:22:01.530Z,8.23
2022-10-28T01:24:54.017Z,7.73
2022-10-28T01:28:04.971Z,8.37
2022-10-28T01:30:55.521Z,7.23
2022-10-28T01:33:29.881Z,6.90
2022-10-28T01:36:07.219Z,8.00
2022-10-28T01:38:45.618Z,8.40
2022-10-28T01:41:20.440Z,8.07
2022-10-28T01:43:54.347Z,7.80
2022-10-28T01:46:30.074Z,8.90
2022-10-28T01:49:03.034Z,7.33
2022-10-28T01:51:36.169Z,7.87
2022-10-28T01:54:08.788Z,9.20
2022-10-28T01:56:42.436Z,8.63
2022-10-28T01:59:17.361Z,8.50
2022-10-28T02:01:47.236Z,7.70
2022-10-28T02:04:15.904Z,8.53
2022-10-28T02:06:48.385Z,8.07
2022-10-28T02:09:28.549Z,8.57
2022-10-28T02:12:28.962Z,7.30
2022-10-28T02:15:25.976Z,8.97
2022-10-28T02:18:13.637Z,7.50
2022-10-28T02:20:50.690Z,7.97
2022-10-28T02:23:28.447Z,8.77
2022-10-28T02:26:02.914Z,7.70
2022-10-28T02:28:41.994Z,8.23
2022-10-28T02:31:23.846Z,7.57
2022-10-28T02:33:58.360Z,7.83
2022-10-28T02:36:29.395Z,7.80
2022-10-28T02:38:59.917Z,7.73
2022-10-28T02:41:34.190Z,8.17
2022-10-28T02:44:08.458Z,8.17
2022-10-28T02:46:40.642Z,8.33
2022-10-28T02:49:13.509Z,7.97
2022-10-28T02:51:47.527Z,7.57
2022-10-28T02:54:19.210Z,7.30
2022-10-28T02:56:53.247Z,8.33
2022-10-28T02:59:21.996Z,7.50
2022-10-28T03:01:50.414Z,7.57
2022-10-28T03:04:20.256Z,8.10
2022-10-28T03:06:48.565Z,6.37
2022-10-28T03:09:17.023Z,7.17
2022-10-28T03:11:45.400Z,7.00
2022-10-28T03:14:15.405Z,7.53
2022-10-28T03:16:43.882Z,7.47
2022-10-28T03:19:12.192Z,6.90
2022-10-28T03:21:41.854Z,8.10
2022-10-28T03:24:10.295Z,7.63
2022-10-28T03:26:38.677Z,7.00
2022-10-28T03:29:07.271Z,8.00
2022-10-28T03:31:35.641Z,8.30
2022-10-28T03:34:03.941Z,7.77
2022-10-28T03:36:32.262Z,8.10
2022-10-28T03:39:02.273Z,8.20
2022-10-28T03:41:30.621Z,7.27
2022-10-28T03:43:58.910Z,8.30
2022-10-28T03:46:29.045Z,7.47
2022-10-28T03:48:59.359Z,6.93
2022-10-28T03:51:27.750Z,7.73
2022-10-28T03:53:56.113Z,7.00
2022-10-28T03:56:25.793Z,7.27
2022-10-28T03:58:54.250Z,7.30
2022-10-28T04:01:22.837Z,6.57
2022-10-28T04:03:51.193Z,7.07
2022-10-28T04:06:19.560Z,8.00
2022-10-28T04:08:47.867Z,6.87
2022-10-28T04:11:16.225Z,6.57
2022-10-28T04:13:45.935Z,7.57
2022-10-28T04:16:14.268Z,7.70
2022-10-28T04:18:42.515Z,6.57
2022-10-28T04:21:11.021Z,7.43
2022-10-28T04:23:39.374Z,7.67
2022-10-28T04:26:07.881Z,6.30
2022-10-28T04:28:36.221Z,7.00
2022-10-28T04:31:06.364Z,5.63
2022-10-28T04:33:34.727Z,7.00
2022-10-28T04:36:02.924Z,6.73
2022-10-28T04:38:31.208Z,7.60
2022-10-28T04:40:59.504Z,6.67
2022-10-28T04:43:27.835Z,7.23
2022-10-28T04:45:56.248Z,6.83
2022-10-28T04:48:25.966Z,6.20
2022-10-28T04:50:54.267Z,5.97
2022-10-28T04:53:22.529Z,6.07
2022-10-28T04:55:50.859Z,6.23
2022-10-28T04:58:19.131Z,7.30
2022-10-28T05:00:47.565Z,6.33
2022-10-28T05:03:15.957Z,5.90
2022-10-28T05:05:45.677Z,6.70
2022-10-28T05:08:13.984Z,6.50
2022-10-28T05:10:42.539Z,6.40
2022-10-28T05:13:10.892Z,5.83
2022-10-28T05:15:39.757Z,5.30
2022-10-28T05:18:08.089Z,5.57
2022-10-28T05:20:36.448Z,5.63
2022-10-28T05:23:06.069Z,5.67
2022-10-28T05:25:34.629Z,6.00
2022-10-28T05:28:02.958Z,6.50
2022-10-28T05:30:31.211Z,6.40
2022-10-28T05:33:02.484Z,5.80
2022-10-28T05:35:31.583Z,6.40
2022-10-28T05:38:00.095Z,5.30
2022-10-28T05:40:29.757Z,5.97
2022-10-28T05:42:57.992Z,6.10
2022-10-28T05:45:26.562Z,5.70
2022-10-28T05:47:55.296Z,6.23
2022-10-28T05:50:24.682Z,6.40
2022-10-28T05:52:55.924Z,8.17
2022-10-28T05:55:28.259Z,6.10
2022-10-28T05:57:58.593Z,5.70
2022-10-28T06:00:28.723Z,5.80
2022-10-28T06:03:04.508Z,6.67
2022-10-28T06:05:32.849Z,5.23
2022-10-28T06:08:02.921Z,7.30
2022-10-28T06:10:31.458Z,6.73
2022-10-28T06:12:59.986Z,6.60
2022-10-28T06:15:28.329Z,6.70
2022-10-28T06:17:56.840Z,6.63
2022-10-28T06:20:25.313Z,7.03
2022-10-28T06:22:55.737Z,6.70
2022-10-28T06:25:26.457Z,6.60
2022-10-28T06:27:56.539Z,5.50
2022-10-28T06:30:28.696Z,6.57
2022-10-28T06:32:57.590Z,5.67
2022-10-28T06:35:25.896Z,6.20
2022-10-28T06:37:55.735Z,7.00
2022-10-28T06:40:25.112Z,6.60
2022-10-28T06:42:58.003Z,6.80
2022-10-28T06:45:28.794Z,6.00
2022-10-28T06:47:59.247Z,6.50
2022-10-28T06:50:28.155Z,6.90
2022-10-28T06:52:57.767Z,6.53
2022-10-28T06:55:26.666Z,7.00
2022-10-28T06:57:56.152Z,6.77
2022-10-28T07:00:24.804Z,6.07
2022-10-28T07:02:55.899Z,6.90
2022-10-28T07:05:26.577Z,5.97
2022-10-28T07:07:55.694Z,6.90
2022-10-28T07:10:24.433Z,6.90
2022-10-28T07:12:54.599Z,6.33
2022-10-28T07:15:23.528Z,6.60
2022-10-28T07:17:55.847Z,7.20
2022-10-28T07:20:25.999Z,6.23
2022-10-28T07:23:00.809Z,7.50
2022-10-28T07:25:30.989Z,7.43
2022-10-28T07:27:59.876Z,7.17
2022-10-28T07:30:29.496Z,6.40
2022-10-28T07:33:01.204Z,6.50
2022-10-28T07:35:30.220Z,7.47
2022-10-28T07:37:59.191Z,7.10
2022-10-28T07:40:27.969Z,6.60
2022-10-28T07:42:56.794Z,7.13
2022-10-28T07:45:25.453Z,7.10
2022-10-28T07:47:54.266Z,7.50
2022-10-28T07:50:24.089Z,6.50
2022-10-28T07:52:52.862Z,6.83
2022-10-28T07:55:22.033Z,6.10
2022-10-28T07:57:50.815Z,6.80
2022-10-28T08:00:19.595Z,7.50
2022-10-28T08:02:50.413Z,7.17
2022-10-28T08:05:19.111Z,6.57
2022-10-28T08:07:48.796Z,6.37
2022-10-28T08:10:17.365Z,6.53
2022-10-28T08:12:46.339Z,5.80
2022-10-28T08:15:16.650Z,6.43
2022-10-28T08:17:44.950Z,6.00
2022-10-28T08:20:13.320Z,5.80
2022-10-28T08:22:42.129Z,5.60
2022-10-28T08:25:12.191Z,5.30
2022-10-28T08:27:42.184Z,5.57
2022-10-28T08:30:12.363Z,7.30
2022-10-28T08:32:40.642Z,5.30
2022-10-28T08:35:10.165Z,5.20
2022-10-28T08:37:38.472Z,5.57
2022-10-28T08:40:11.350Z,6.00
2022-10-28T08:42:49.121Z,5.00
2022-10-28T08:45:39.671Z,5.37
2022-10-28T08:48:19.155Z,5.27
2022-10-28T08:50:53.109Z,4.47
2022-10-28T08:53:26.603Z,4.43
2022-10-28T08:56:02.790Z,4.20
2022-10-28T08:58:37.377Z,4.80
2022-10-28T09:01:10.296Z,5.70
2022-10-28T09:03:43.091Z,4.73
2022-10-28T09:06:12.611Z,4.73
2022-10-28T09:08:44.584Z,4.53
2022-10-28T09:11:43.246Z,4.50
2022-10-28T09:14:35.329Z,4.60
2022-10-28T09:17:18.156Z,4.77
2022-10-28T09:19:50.980Z,5.63
2022-10-28T09:22:38.902Z,4.50
2022-10-28T09:25:19.208Z,4.37
2022-10-28T09:28:07.493Z,4.20
2022-10-28T09:30:51.232Z,5.30
2022-10-28T09:33:45.292Z,5.00
2022-10-28T09:36:20.970Z,4.70
2022-10-28T09:38:53.051Z,4.20
2022-10-28T09:41:25.197Z,4.87
2022-10-28T09:43:59.352Z,3.73
2022-10-28T09:46:34.669Z,4.13
2022-10-28T09:49:13.383Z,3.77
2022-10-28T09:51:49.135Z,4.50
2022-10-28T09:54:18.587Z,4.57
2022-10-28T09:56:46.926Z,4.13
2022-10-28T09:59:16.785Z,3.80
2022-10-28T10:01:47.849Z,4.33
2022-10-28T10:04:22.757Z,4.10
2022-10-28T10:06:55.479Z,4.20
2022-10-28T10:09:29.185Z,4.50
2022-10-28T10:12:03.676Z,4.43
2022-10-28T10:14:39.552Z,3.90
2022-10-28T10:17:16.958Z,3.90
2022-10-28T10:20:04.241Z,3.80
2022-10-28T10:22:35.603Z,4.23
2022-10-28T10:25:04.617Z,4.50
2022-10-28T10:27:33.179Z,3.70
2022-10-28T10:30:02.491Z,3.80
2022-10-28T10:32:34.146Z,4.20
2022-10-28T10:35:16.355Z,3.77
2022-10-28T10:37:48.214Z,4.00
2022-10-28T10:40:25.356Z,3.77
2022-10-28T10:43:13.101Z,3.70
2022-10-28T10:45:43.363Z,3.80
2022-10-28T10:48:18.833Z,3.73
2022-10-28T10:50:48.903Z,3.70
2022-10-28T10:53:24.759Z,3.77
2022-10-28T10:55:58.111Z,3.67
2022-10-28T10:58:31.274Z,3.77
2022-10-28T11:01:03.723Z,4.37
2022-10-28T11:03:48.709Z,3.90
2022-10-28T11:06:25.076Z,3.60
2022-10-28T11:08:59.317Z,3.93
2022-10-28T11:11:36.661Z,3.87
2022-10-28T11:14:19.183Z,3.60
2022-10-28T11:16:52.349Z,3.83
2022-10-28T11:19:25.873Z,3.33
2022-10-28T11:22:22.177Z,3.37
2022-10-28T11:25:12.432Z,3.10
2022-10-28T11:27:56.324Z,3.63
2022-10-28T11:30:42.049Z,3.93
2022-10-28T11:33:29.863Z,3.77
2022-10-28T11:36:13.032Z,3.57
2022-10-28T11:39:17.059Z,3.30
2022-10-28T11:42:01.582Z,3.80
2022-10-28T11:44:45.208Z,4.00
2022-10-28T11:47:44.702Z,3.23
2022-10-28T11:50:29.267Z,4.77
2022-10-28T11:53:31.336Z,3.50
2022-10-28T11:56:09.700Z,4.57
2022-10-28T11:58:46.934Z,3.93
2022-10-28T12:01:32.579Z,3.40
2022-10-28T12:04:26.766Z,4.13
2022-10-28T12:07:33.388Z,4.50
2022-10-28T12:10:31.189Z,3.97
2022-10-28T12:13:10.522Z,3.47
2022-10-28T12:15:51.835Z,3.50
2022-10-28T12:18:27.374Z,3.93
2022-10-28T12:21:04.354Z,3.90
2022-10-28T12:23:36.752Z,3.90
2022-10-28T12:26:13.835Z,3.70
2022-10-28T12:28:47.015Z,3.83
2022-10-28T12:31:24.123Z,3.67
2022-10-28T12:33:58.262Z,3.80
2022-10-28T12:36:35.412Z,3.77
2022-10-28T12:39:12.385Z,3.70
2022-10-28T12:42:00.775Z,3.47
2022-10-28T12:44:29.947Z,3.70
2022-10-28T12:47:20.571Z,4.00
2022-10-28T12:50:11.758Z,3.80
2022-10-28T12:52:50.335Z,4.83
2022-10-28T12:55:32.121Z,3.63
2022-10-28T12:58:12.934Z,3.40
2022-10-28T13:00:46.406Z,3.47
2022-10-28T13:03:17.023Z,4.07
2022-10-28T13:05:51.933Z,4.40
2022-10-28T13:08:47.670Z,3.90
2022-10-28T13:11:57.913Z,4.27
2022-10-28T13:15:01.420Z,4.00
2022-10-28T13:17:43.897Z,3.80
2022-10-28T13:20:38.043Z,4.40
2022-10-28T13:23:18.803Z,3.57
2022-10-28T13:26:16.566Z,3.77
2022-10-28T13:28:48.959Z,3.60
2022-10-28T13:31:20.444Z,3.40
2022-10-28T13:33:55.629Z,3.37
2022-10-28T13:36:29.626Z,3.40
2022-10-28T13:39:01.538Z,3.70
2022-10-28T13:41:42.212Z,2.73
2022-10-28T13:44:29.357Z,3.63
2022-10-28T13:47:28.793Z,3.17
2022-10-28T13:50:42.083Z,3.00
2022-10-28T13:53:56.555Z,3.10
2022-10-28T13:56:49.310Z,3.10
2022-10-28T13:59:31.861Z,3.10
2022-10-28T14:02:41.107Z,3.60
2022-10-28T14:05:11.955Z,3.60
2022-10-28T14:07:54.709Z,3.77
2022-10-28T14:10:27.856Z,3.60
2022-10-28T14:12:58.625Z,3.03
2022-10-28T14:15:30.732Z,3.80
2022-10-28T14:18:15.980Z,3.10
2022-10-28T14:21:01.083Z,3.80
2022-10-28T14:24:10.213Z,3.10
2022-10-28T14:27:42.029Z,3.60
2022-10-28T14:30:28.497Z,3.70
2022-10-28T14:33:28.539Z,3.23
2022-10-28T14:36:30.583Z,3.60
2022-10-28T14:39:30.467Z,3.47
2022-10-28T14:42:23.816Z,3.37
2022-10-28T14:45:19.093Z,3.33
2022-10-28T14:48:39.179Z,3.67
2022-10-28T14:51:14.783Z,3.27
2022-10-28T14:53:45.687Z,3.80
2022-10-28T14:56:25.228Z,3.90
2022-10-28T14:58:55.919Z,3.87
2022-10-28T15:01:36.142Z,4.30
2022-10-28T15:04:14.086Z,3.97
2022-10-28T15:06:46.802Z,3.80
2022-10-28T15:09:22.426Z,4.30
2022-10-28T15:11:55.960Z,4.03
2022-10-28T15:14:35.057Z,3.47
2022-10-28T15:17:13.738Z,4.27
2022-10-28T15:19:44.723Z,3.73
2022-10-28T15:22:20.828Z,3.70
2022-10-28T15:25:01.472Z,3.80
2022-10-28T15:27:32.475Z,4.23
2022-10-28T15:30:01.894Z,4.50
2022-10-28T15:32:35.751Z,5.07
2022-10-28T15:35:40.316Z,4.93
2022-10-28T15:38:39.307Z,3.80
2022-10-28T15:41:49.351Z,3.60
2022-10-28T15:44:39.915Z,3.57
2022-10-28T15:47:24.980Z,4.57
2022-10-28T15:50:28.634Z,4.30
2022-10-28T15:53:23.460Z,3.97
2022-10-28T15:56:17.915Z,4.10
2022-10-28T15:58:48.369Z,4.37
2022-10-28T16:01:32.179Z,5.10
2022-10-28T16:04:00.702Z,4.03
2022-10-28T16:06:31.924Z,3.63
2022-10-28T16:09:07.155Z,3.93
2022-10-28T16:11:39.386Z,4.43
2022-10-28T16:14:32.811Z,6.80
2022-10-28T16:17:16.611Z,6.37
2022-10-28T16:19:52.468Z,6.20
2022-10-28T16:22:22.338Z,7.10
2022-10-28T16:24:54.781Z,5.50
2022-10-28T16:27:25.960Z,4.70
2022-10-28T16:29:55.579Z,4.33
2022-10-28T16:32:30.103Z,4.60
2022-10-28T16:35:00.217Z,3.60
2022-10-28T16:37:31.854Z,4.37
2022-10-28T16:40:01.564Z,5.43
2022-10-28T16:42:29.882Z,5.00
2022-10-28T16:44:58.569Z,4.13
2022-10-28T16:47:27.724Z,4.93
2022-10-28T16:49:57.805Z,5.10
2022-10-28T16:52:30.070Z,5.07
2022-10-28T16:54:59.099Z,4.67
2022-10-28T16:57:28.847Z,5.00
2022-10-28T16:59:57.330Z,4.13
2022-10-28T17:02:31.696Z,4.50
2022-10-28T17:05:01.030Z,4.80
2022-10-28T17:07:29.887Z,4.90
2022-10-28T17:09:58.451Z,4.77
2022-10-28T17:12:29.602Z,5.27
2022-10-28T17:14:57.979Z,4.60
2022-10-28T17:17:26.448Z,4.33
2022-10-28T17:19:54.932Z,4.60
2022-10-28T17:22:23.467Z,5.10
2022-10-28T17:24:51.851Z,5.60
2022-10-28T17:27:20.475Z,5.80
2022-10-28T17:29:50.191Z,5.57
2022-10-28T17:32:19.361Z,5.60
2022-10-28T17:34:47.621Z,5.63
2022-10-28T17:37:18.022Z,5.73
2022-10-28T17:39:46.420Z,6.80
2022-10-28T17:42:14.859Z,7.70
2022-10-28T17:44:43.289Z,6.80
2022-10-28T17:47:13.352Z,6.73
2022-10-28T17:49:41.793Z,5.60
2022-10-28T17:52:10.187Z,6.20
2022-10-28T17:54:38.534Z,4.87
2022-10-28T17:57:06.896Z,6.30
2022-10-28T17:59:35.226Z,6.00
2022-10-28T18:02:03.598Z,5.53
2022-10-28T18:04:33.436Z,5.10
2022-10-28T18:07:01.931Z,5.83
2022-10-28T18:09:31.805Z,5.67
2022-10-28T18:12:01.953Z,6.07
2022-10-28T18:14:31.155Z,5.00
2022-10-28T18:16:59.499Z,4.77
2022-10-28T18:19:28.012Z,5.03
2022-10-28T18:21:57.766Z,5.00
2022-10-28T18:24:26.378Z,5.10
2022-10-28T18:26:57.389Z,4.40
2022-10-28T18:29:26.597Z,4.40
2022-10-28T18:31:56.657Z,4.53
2022-10-28T18:34:25.112Z,4.70
2022-10-28T18:36:53.384Z,3.90
2022-10-28T18:39:23.073Z,3.67
2022-10-28T18:41:51.623Z,3.63
2022-10-28T18:44:24.222Z,4.00
2022-10-28T18:46:52.941Z,4.03
2022-10-28T18:49:21.281Z,4.73
2022-10-28T18:51:49.597Z,3.90
2022-10-28T18:54:18.068Z,4.53
2022-10-28T18:56:49.170Z,3.93
2022-10-28T18:59:18.820Z,3.60
2022-10-28T19:01:48.414Z,3.80
2022-10-28T19:04:16.887Z,4.30
2022-10-28T19:06:46.700Z,4.57
2022-10-28T19:09:15.323Z,4.07
2022-10-28T19:11:43.732Z,5.53
2022-10-28T19:14:13.844Z,4.30
2022-10-28T19:16:42.338Z,4.10
2022-10-28T19:19:10.689Z,3.63
2022-10-28T19:21:39.256Z,3.30
2022-10-28T19:24:08.700Z,4.37
2022-10-28T19:26:37.210Z,5.17
2022-10-28T19:29:06.010Z,3.57
2022-10-28T19:31:39.041Z,4.93
2022-10-28T19:34:07.494Z,3.90
2022-10-28T19:36:35.844Z,3.57
2022-10-28T19:39:05.077Z,5.10
2022-10-28T19:41:33.839Z,4.30
2022-10-28T19:44:04.140Z,3.90
2022-10-28T19:46:36.551Z,5.00
2022-10-28T19:49:07.994Z,4.43
2022-10-28T19:51:38.195Z,3.63
2022-10-28T19:54:10.733Z,5.67
2022-10-28T19:56:41.510Z,6.37
2022-10-28T19:59:09.821Z,7.00
2022-10-28T20:01:40.978Z,7.10
2022-10-28T20:04:10.959Z,5.53
2022-10-28T20:06:41.621Z,4.40
2022-10-28T20:09:10.331Z,5.40
2022-10-28T20:11:40.230Z,4.70
2022-10-28T20:14:11.620Z,4.93
2022-10-28T20:16:43.673Z,4.40
2022-10-28T20:19:12.296Z,4.00
2022-10-28T20:21:40.983Z,4.60
2022-10-28T20:24:10.111Z,4.80
2022-10-28T20:26:39.886Z,4.70
2022-10-28T20:29:09.814Z,3.70
2022-10-28T20:31:40.632Z,4.03
2022-10-28T20:34:10.532Z,4.10
2022-10-28T20:36:41.054Z,3.90
2022-10-28T20:39:16.567Z,4.00
2022-10-28T20:41:47.351Z,4.60
2022-10-28T20:44:16.096Z,3.70
2022-10-28T20:46:46.596Z,4.13
2022-10-28T20:49:16.589Z,3.60
2022-10-28T20:51:45.059Z,4.33
2022-10-28T20:54:13.370Z,3.67
2022-10-28T20:56:42.261Z,4.00
2022-10-28T20:59:10.724Z,3.70
2022-10-28T21:01:41.591Z,3.90
2022-10-28T21:04:12.108Z,3.90
2022-10-28T21:06:42.276Z,7.10
2022-10-28T21:09:11.766Z,5.00
2022-10-28T21:11:40.212Z,4.70
2022-10-28T21:14:08.814Z,3.90
2022-10-28T21:16:37.436Z,5.07
2022-10-28T21:19:06.981Z,4.67
2022-10-28T21:21:35.381Z,4.80
2022-10-28T21:24:06.061Z,4.80
2022-10-28T21:26:34.395Z,4.47
2022-10-28T21:29:02.864Z,4.57
2022-10-28T21:31:31.301Z,5.00
2022-10-28T21:34:01.760Z,4.60
2022-10-28T21:36:32.721Z,5.47
2022-10-28T21:39:00.953Z,4.37
2022-10-28T21:41:30.817Z,4.40
2022-10-28T21:43:59.120Z,5.67
2022-10-28T21:46:27.999Z,4.80
2022-10-28T21:48:56.519Z,4.70
2022-10-28T21:51:24.870Z,5.20
2022-10-28T21:53:53.201Z,5.70
2022-10-28T21:56:21.937Z,5.67
2022-10-28T21:58:52.506Z,5.20
2022-10-28T22:01:23.733Z,5.57
2022-10-28T22:03:55.509Z,5.90
2022-10-28T22:06:24.979Z,5.40
2022-10-28T22:08:54.203Z,5.43
2022-10-28T22:11:24.935Z,6.00
2022-10-28T22:13:58.987Z,5.57
2022-10-28T22:16:29.560Z,7.47
2022-10-28T22:18:59.883Z,6.53
2022-10-28T22:21:31.576Z,6.53
2022-10-28T22:24:00.067Z,9.13
2022-10-28T22:26:30.393Z,6.87
2022-10-28T22:29:00.323Z,6.77
2022-10-28T22:31:32.231Z,5.37
2022-10-28T22:34:01.484Z,5.20
2022-10-28T22:36:31.192Z,5.30
2022-10-28T22:38:59.727Z,6.50
2022-10-28T22:41:30.398Z,4.93
2022-10-28T22:44:02.373Z,6.07
2022-10-28T22:46:36.622Z,5.40
2022-10-28T22:49:05.405Z,6.07
2022-10-28T22:51:33.757Z,5.33
2022-10-28T22:54:02.139Z,5.43
2022-10-28T22:56:30.525Z,6.63
2022-10-28T22:59:02.566Z,5.13
2022-10-28T23:01:31.346Z,6.57
2022-10-28T23:04:02.636Z,5.87
2022-10-28T23:06:31.278Z,5.60
2022-10-28T23:08:59.977Z,5.93
2022-10-28T23:11:28.464Z,5.93
2022-10-28T23:13:57.032Z,6.77
2022-10-28T23:16:26.718Z,6.03
2022-10-28T23:18:55.122Z,6.70
2022-10-28T23:21:25.507Z,5.87
2022-10-28T23:23:55.384Z,5.67
2022-10-28T23:26:24.578Z,6.40
2022-10-28T23:28:54.642Z,6.83
2022-10-28T23:31:24.637Z,7.00
2022-10-28T23:33:55.302Z,7.00
2022-10-28T23:36:23.961Z,6.83
2022-10-28T23:38:52.522Z,21.07
2022-10-28T23:41:21.249Z,14.40
2022-10-28T23:43:49.821Z,10.30
2022-10-28T23:46:19.612Z,7.23
2022-10-28T23:48:47.899Z,7.70
2022-10-28T23:51:19.258Z,7.33
2022-10-28T23:53:47.665Z,6.87
2022-10-28T23:56:16.062Z,5.97
2022-10-28T23:58:44.424Z,6.60
